sensor_id;sensor_type;location;lat;lon;timestamp;P1;durP1;ratioP1;P2;durP2;ratioP2
6434;SDS011;3250;42.694;23.278;2023-01-04T00:01:51;17.77;;;12.35;;
6434;SDS011;3250;42.694;23.278;2023-01-04T00:04:17;15.02;;;11.18;;
6434;SDS011;3250;42.694;23.278;2023-01-04T00:06:42;14.67;;;9.87;;
6434;SDS011;3250;42.694;23.278;2023-01-04T00:09:08;16.33;;;10.50;;
6434;SDS011;3250;42.694;23.278;2023-01-04T00:11:33;14.63;;;9.60;;
6434;SDS011;3250;42.694;23.278;2023-01-04T00:13:59;17.20;;;9.10;;
6434;SDS011;3250;42.694;23.278;2023-01-04T00:16:25;15.13;;;8.93;;
6434;SDS011;3250;42.694;23.278;2023-01-04T00:18:52;11.43;;;7.40;;
6434;SDS011;3250;42.694;23.278;2023-01-04T00:21:20;15.27;;;8.57;;
6434;SDS011;3250;42.694;23.278;2023-01-04T00:23:48;13.75;;;9.02;;
6434;SDS011;3250;42.694;23.278;2023-01-04T00:26:16;15.10;;;8.20;;
6434;SDS011;3250;42.694;23.278;2023-01-04T00:28:46;13.97;;;8.17;;
6434;SDS011;3250;42.694;23.278;2023-01-04T00:31:13;12.88;;;8.25;;
6434;SDS011;3250;42.694;23.278;2023-01-04T00:33:39;11.07;;;6.72;;
6434;SDS011;3250;42.694;23.278;2023-01-04T00:36:09;14.10;;;7.63;;
6434;SDS011;3250;42.694;23.278;2023-01-04T00:38:36;13.55;;;7.43;;
6434;SDS011;3250;42.694;23.278;2023-01-04T00:41:03;12.07;;;7.13;;
6434;SDS011;3250;42.694;23.278;2023-01-04T00:43:29;13.30;;;8.60;;
6434;SDS011;3250;42.694;23.278;2023-01-04T00:45:55;11.10;;;7.47;;
6434;SDS011;3250;42.694;23.278;2023-01-04T00:48:21;13.40;;;8.40;;
6434;SDS011;3250;42.694;23.278;2023-01-04T00:50:47;14.35;;;8.80;;
6434;SDS011;3250;42.694;23.278;2023-01-04T00:53:14;12.43;;;8.63;;
6434;SDS011;3250;42.694;23.278;2023-01-04T00:55:40;13.87;;;8.10;;
6434;SDS011;3250;42.694;23.278;2023-01-04T00:58:05;12.40;;;8.40;;
6434;SDS011;3250;42.694;23.278;2023-01-04T01:00:31;14.60;;;8.80;;
6434;SDS011;3250;42.694;23.278;2023-01-04T01:02:57;11.93;;;7.60;;
6434;SDS011;3250;42.694;23.278;2023-01-04T01:05:23;13.13;;;8.53;;
6434;SDS011;3250;42.694;23.278;2023-01-04T01:07:48;11.53;;;8.13;;
6434;SDS011;3250;42.694;23.278;2023-01-04T01:10:13;13.87;;;8.20;;
6434;SDS011;3250;42.694;23.278;2023-01-04T01:12:39;14.10;;;8.70;;
6434;SDS011;3250;42.694;23.278;2023-01-04T01:15:04;13.13;;;7.60;;
6434;SDS011;3250;42.694;23.278;2023-01-04T01:17:30;12.57;;;8.93;;
6434;SDS011;3250;42.694;23.278;2023-01-04T01:19:57;11.57;;;7.53;;
6434;SDS011;3250;42.694;23.278;2023-01-04T01:22:23;12.30;;;8.20;;
6434;SDS011;3250;42.694;23.278;2023-01-04T01:24:48;11.67;;;7.70;;
6434;SDS011;3250;42.694;23.278;2023-01-04T01:27:14;12.80;;;7.57;;
6434;SDS011;3250;42.694;23.278;2023-01-04T01:29:39;14.60;;;9.25;;
6434;SDS011;3250;42.694;23.278;2023-01-04T01:32:04;17.00;;;8.00;;
6434;SDS011;3250;42.694;23.278;2023-01-04T01:34:30;11.97;;;8.23;;
6434;SDS011;3250;42.694;23.278;2023-01-04T01:36:55;18.57;;;7.80;;
6434;SDS011;3250;42.694;23.278;2023-01-04T01:39:21;11.93;;;7.67;;
6434;SDS011;3250;42.694;23.278;2023-01-04T01:41:46;15.07;;;9.37;;
6434;SDS011;3250;42.694;23.278;2023-01-04T01:46:37;13.73;;;8.30;;
6434;SDS011;3250;42.694;23.278;2023-01-04T01:51:47;14.90;;;8.20;;
6434;SDS011;3250;42.694;23.278;2023-01-04T01:54:16;15.68;;;8.30;;
6434;SDS011;3250;42.694;23.278;2023-01-04T01:56:46;13.97;;;7.70;;
6434;SDS011;3250;42.694;23.278;2023-01-04T01:59:15;13.68;;;9.45;;
6434;SDS011;3250;42.694;23.278;2023-01-04T02:01:42;17.83;;;10.07;;
6434;SDS011;3250;42.694;23.278;2023-01-04T02:04:08;14.03;;;8.53;;
6434;SDS011;3250;42.694;23.278;2023-01-04T02:06:38;16.13;;;9.55;;
6434;SDS011;3250;42.694;23.278;2023-01-04T02:09:06;16.30;;;9.27;;
6434;SDS011;3250;42.694;23.278;2023-01-04T02:11:32;16.20;;;9.03;;
6434;SDS011;3250;42.694;23.278;2023-01-04T02:13:57;13.53;;;7.53;;
6434;SDS011;3250;42.694;23.278;2023-01-04T02:35:24;16.33;;;9.77;;
6434;SDS011;3250;42.694;23.278;2023-01-04T02:38:11;17.30;;;9.43;;
6434;SDS011;3250;42.694;23.278;2023-01-04T02:41:07;17.67;;;10.00;;
6434;SDS011;3250;42.694;23.278;2023-01-04T02:43:40;15.25;;;9.77;;
6434;SDS011;3250;42.694;23.278;2023-01-04T02:46:34;14.75;;;10.10;;
6434;SDS011;3250;42.694;23.278;2023-01-04T02:49:06;18.63;;;10.25;;
6434;SDS011;3250;42.694;23.278;2023-01-04T02:51:50;16.20;;;9.13;;
6434;SDS011;3250;42.694;23.278;2023-01-04T02:54:17;15.57;;;9.37;;
6434;SDS011;3250;42.694;23.278;2023-01-04T03:08:15;13.35;;;8.68;;
6434;SDS011;3250;42.694;23.278;2023-01-04T03:10:57;16.05;;;9.75;;
6434;SDS011;3250;42.694;23.278;2023-01-04T03:13:27;16.77;;;10.18;;
6434;SDS011;3250;42.694;23.278;2023-01-04T03:16:06;15.57;;;10.67;;
6434;SDS011;3250;42.694;23.278;2023-01-04T03:18:36;16.17;;;10.10;;
6434;SDS011;3250;42.694;23.278;2023-01-04T03:21:10;16.30;;;9.23;;
6434;SDS011;3250;42.694;23.278;2023-01-04T03:23:37;14.97;;;9.23;;
6434;SDS011;3250;42.694;23.278;2023-01-04T03:26:27;16.77;;;11.23;;
6434;SDS011;3250;42.694;23.278;2023-01-04T03:29:16;23.13;;;10.13;;
6434;SDS011;3250;42.694;23.278;2023-01-04T03:32:07;15.10;;;10.05;;
6434;SDS011;3250;42.694;23.278;2023-01-04T03:34:56;17.38;;;10.85;;
6434;SDS011;3250;42.694;23.278;2023-01-04T03:46:02;16.85;;;11.25;;
6434;SDS011;3250;42.694;23.278;2023-01-04T03:48:59;17.55;;;11.65;;
6434;SDS011;3250;42.694;23.278;2023-01-04T03:51:35;17.23;;;11.43;;
6434;SDS011;3250;42.694;23.278;2023-01-04T03:54:03;15.27;;;10.27;;
6434;SDS011;3250;42.694;23.278;2023-01-04T03:56:35;17.90;;;8.53;;
6434;SDS011;3250;42.694;23.278;2023-01-04T03:59:06;20.08;;;10.52;;
6434;SDS011;3250;42.694;23.278;2023-01-04T04:01:31;15.97;;;9.23;;
6434;SDS011;3250;42.694;23.278;2023-01-04T04:03:57;13.37;;;9.57;;
6434;SDS011;3250;42.694;23.278;2023-01-04T04:06:41;13.52;;;9.48;;
6434;SDS011;3250;42.694;23.278;2023-01-04T04:09:25;15.27;;;9.80;;
6434;SDS011;3250;42.694;23.278;2023-01-04T04:11:50;18.17;;;10.35;;
6434;SDS011;3250;42.694;23.278;2023-01-04T04:14:16;18.52;;;11.65;;
6434;SDS011;3250;42.694;23.278;2023-01-04T04:16:41;18.05;;;11.43;;
6434;SDS011;3250;42.694;23.278;2023-01-04T04:19:06;17.80;;;10.50;;
6434;SDS011;3250;42.694;23.278;2023-01-04T04:21:32;15.52;;;10.48;;
6434;SDS011;3250;42.694;23.278;2023-01-04T04:23:57;19.87;;;12.33;;
6434;SDS011;3250;42.694;23.278;2023-01-04T04:26:23;16.80;;;10.43;;
6434;SDS011;3250;42.694;23.278;2023-01-04T04:28:49;19.08;;;11.35;;
6434;SDS011;3250;42.694;23.278;2023-01-04T04:31:15;15.20;;;9.52;;
6434;SDS011;3250;42.694;23.278;2023-01-04T04:33:40;15.87;;;9.80;;
6434;SDS011;3250;42.694;23.278;2023-01-04T04:36:06;12.90;;;8.77;;
6434;SDS011;3250;42.694;23.278;2023-01-04T04:38:32;21.65;;;10.95;;
6434;SDS011;3250;42.694;23.278;2023-01-04T04:40:58;21.38;;;10.90;;
6434;SDS011;3250;42.694;23.278;2023-01-04T04:43:42;18.20;;;9.50;;
6434;SDS011;3250;42.694;23.278;2023-01-04T04:46:07;18.07;;;10.43;;
6434;SDS011;3250;42.694;23.278;2023-01-04T04:48:33;15.98;;;10.40;;
6434;SDS011;3250;42.694;23.278;2023-01-04T04:50:58;14.80;;;10.40;;
6434;SDS011;3250;42.694;23.278;2023-01-04T04:53:24;15.60;;;8.67;;
6434;SDS011;3250;42.694;23.278;2023-01-04T04:55:50;14.93;;;9.73;;
6434;SDS011;3250;42.694;23.278;2023-01-04T04:58:16;16.00;;;9.95;;
6434;SDS011;3250;42.694;23.278;2023-01-04T05:00:41;16.33;;;9.23;;
6434;SDS011;3250;42.694;23.278;2023-01-04T05:03:07;15.50;;;9.93;;
6434;SDS011;3250;42.694;23.278;2023-01-04T05:05:33;16.13;;;10.63;;
6434;SDS011;3250;42.694;23.278;2023-01-04T05:07:58;24.23;;;14.00;;
6434;SDS011;3250;42.694;23.278;2023-01-04T05:10:23;45.03;;;19.53;;
6434;SDS011;3250;42.694;23.278;2023-01-04T05:12:49;31.58;;;16.30;;
6434;SDS011;3250;42.694;23.278;2023-01-04T05:15:28;21.15;;;12.52;;
6434;SDS011;3250;42.694;23.278;2023-01-04T05:17:56;22.90;;;11.70;;
6434;SDS011;3250;42.694;23.278;2023-01-04T05:20:22;44.00;;;22.17;;
6434;SDS011;3250;42.694;23.278;2023-01-04T05:22:47;26.67;;;15.85;;
6434;SDS011;3250;42.694;23.278;2023-01-04T05:25:13;18.13;;;12.13;;
6434;SDS011;3250;42.694;23.278;2023-01-04T05:27:39;18.20;;;10.80;;
6434;SDS011;3250;42.694;23.278;2023-01-04T05:30:05;29.92;;;16.63;;
6434;SDS011;3250;42.694;23.278;2023-01-04T05:32:49;29.67;;;16.92;;
6434;SDS011;3250;42.694;23.278;2023-01-04T05:35:14;24.37;;;13.30;;
6434;SDS011;3250;42.694;23.278;2023-01-04T05:37:40;17.13;;;10.53;;
6434;SDS011;3250;42.694;23.278;2023-01-04T05:40:06;26.50;;;11.53;;
6434;SDS011;3250;42.694;23.278;2023-01-04T05:42:32;21.45;;;11.90;;
6434;SDS011;3250;42.694;23.278;2023-01-04T05:44:57;21.97;;;12.70;;
6434;SDS011;3250;42.694;23.278;2023-01-04T05:47:23;24.97;;;13.93;;
6434;SDS011;3250;42.694;23.278;2023-01-04T05:49:50;33.65;;;16.63;;
6434;SDS011;3250;42.694;23.278;2023-01-04T05:52:16;29.58;;;15.45;;
6434;SDS011;3250;42.694;23.278;2023-01-04T05:54:41;26.13;;;14.60;;
6434;SDS011;3250;42.694;23.278;2023-01-04T05:57:07;29.80;;;16.30;;
6434;SDS011;3250;42.694;23.278;2023-01-04T05:59:32;27.23;;;13.03;;
6434;SDS011;3250;42.694;23.278;2023-01-04T06:01:58;20.27;;;11.27;;
6434;SDS011;3250;42.694;23.278;2023-01-04T06:04:23;20.33;;;10.70;;
6434;SDS011;3250;42.694;23.278;2023-01-04T06:06:49;24.40;;;12.47;;
6434;SDS011;3250;42.694;23.278;2023-01-04T06:09:14;20.30;;;11.00;;
6434;SDS011;3250;42.694;23.278;2023-01-04T06:11:39;21.73;;;13.10;;
6434;SDS011;3250;42.694;23.278;2023-01-04T06:14:05;30.63;;;14.63;;
6434;SDS011;3250;42.694;23.278;2023-01-04T06:16:30;21.00;;;13.00;;
6434;SDS011;3250;42.694;23.278;2023-01-04T06:18:56;24.40;;;12.93;;
6434;SDS011;3250;42.694;23.278;2023-01-04T06:21:21;37.80;;;18.13;;
6434;SDS011;3250;42.694;23.278;2023-01-04T06:23:49;23.13;;;12.23;;
6434;SDS011;3250;42.694;23.278;2023-01-04T06:26:15;21.02;;;13.02;;
6434;SDS011;3250;42.694;23.278;2023-01-04T06:28:40;20.70;;;13.80;;
6434;SDS011;3250;42.694;23.278;2023-01-04T06:31:06;18.07;;;9.93;;
6434;SDS011;3250;42.694;23.278;2023-01-04T06:33:32;21.88;;;12.93;;
6434;SDS011;3250;42.694;23.278;2023-01-04T06:35:58;20.03;;;12.50;;
6434;SDS011;3250;42.694;23.278;2023-01-04T06:38:24;21.97;;;13.13;;
6434;SDS011;3250;42.694;23.278;2023-01-04T06:40:51;21.50;;;12.10;;
6434;SDS011;3250;42.694;23.278;2023-01-04T06:43:16;21.10;;;13.63;;
6434;SDS011;3250;42.694;23.278;2023-01-04T06:45:42;20.98;;;12.65;;
6434;SDS011;3250;42.694;23.278;2023-01-04T06:48:08;20.20;;;12.50;;
6434;SDS011;3250;42.694;23.278;2023-01-04T06:50:33;20.20;;;11.03;;
6434;SDS011;3250;42.694;23.278;2023-01-04T06:52:59;21.67;;;12.32;;
6434;SDS011;3250;42.694;23.278;2023-01-04T06:55:24;23.13;;;13.00;;
6434;SDS011;3250;42.694;23.278;2023-01-04T06:57:50;21.93;;;12.70;;
6434;SDS011;3250;42.694;23.278;2023-01-04T07:00:15;21.73;;;13.48;;
6434;SDS011;3250;42.694;23.278;2023-01-04T07:02:41;20.77;;;13.00;;
6434;SDS011;3250;42.694;23.278;2023-01-04T07:05:07;19.47;;;10.80;;
6434;SDS011;3250;42.694;23.278;2023-01-04T07:07:32;21.80;;;11.63;;
6434;SDS011;3250;42.694;23.278;2023-01-04T07:09:59;19.07;;;10.33;;
6434;SDS011;3250;42.694;23.278;2023-01-04T07:12:24;20.53;;;10.93;;
6434;SDS011;3250;42.694;23.278;2023-01-04T07:14:50;19.10;;;11.27;;
6434;SDS011;3250;42.694;23.278;2023-01-04T07:17:15;20.00;;;11.27;;
6434;SDS011;3250;42.694;23.278;2023-01-04T07:19:41;20.87;;;11.40;;
6434;SDS011;3250;42.694;23.278;2023-01-04T07:22:06;21.37;;;10.40;;
6434;SDS011;3250;42.694;23.278;2023-01-04T07:24:31;17.33;;;10.33;;
6434;SDS011;3250;42.694;23.278;2023-01-04T07:27:00;20.53;;;11.27;;
6434;SDS011;3250;42.694;23.278;2023-01-04T07:29:26;31.40;;;15.30;;
6434;SDS011;3250;42.694;23.278;2023-01-04T07:31:52;29.87;;;14.67;;
6434;SDS011;3250;42.694;23.278;2023-01-04T07:34:18;25.50;;;14.63;;
6434;SDS011;3250;42.694;23.278;2023-01-04T07:36:46;29.83;;;15.63;;
6434;SDS011;3250;42.694;23.278;2023-01-04T07:39:12;23.10;;;12.47;;
6434;SDS011;3250;42.694;23.278;2023-01-04T07:41:39;23.63;;;12.10;;
6434;SDS011;3250;42.694;23.278;2023-01-04T07:44:05;26.63;;;13.07;;
6434;SDS011;3250;42.694;23.278;2023-01-04T07:46:32;37.33;;;17.33;;
6434;SDS011;3250;42.694;23.278;2023-01-04T07:48:58;30.67;;;14.63;;
6434;SDS011;3250;42.694;23.278;2023-01-04T07:51:24;47.13;;;17.97;;
6434;SDS011;3250;42.694;23.278;2023-01-04T07:53:49;33.57;;;16.33;;
6434;SDS011;3250;42.694;23.278;2023-01-04T07:56:15;29.03;;;13.67;;
6434;SDS011;3250;42.694;23.278;2023-01-04T07:58:41;20.13;;;11.83;;
6434;SDS011;3250;42.694;23.278;2023-01-04T08:01:07;21.23;;;11.87;;
6434;SDS011;3250;42.694;23.278;2023-01-04T08:03:33;22.33;;;13.60;;
6434;SDS011;3250;42.694;23.278;2023-01-04T08:06:05;33.83;;;15.70;;
6434;SDS011;3250;42.694;23.278;2023-01-04T08:08:32;19.47;;;11.00;;
6434;SDS011;3250;42.694;23.278;2023-01-04T08:11:01;16.93;;;10.87;;
6434;SDS011;3250;42.694;23.278;2023-01-04T08:13:27;18.83;;;10.20;;
6434;SDS011;3250;42.694;23.278;2023-01-04T08:15:53;20.87;;;10.70;;
6434;SDS011;3250;42.694;23.278;2023-01-04T08:18:19;23.87;;;10.30;;
6434;SDS011;3250;42.694;23.278;2023-01-04T08:20:44;22.80;;;11.37;;
6434;SDS011;3250;42.694;23.278;2023-01-04T08:23:10;16.30;;;9.70;;
6434;SDS011;3250;42.694;23.278;2023-01-04T08:25:35;25.13;;;11.77;;
6434;SDS011;3250;42.694;23.278;2023-01-04T08:28:01;25.43;;;12.00;;
6434;SDS011;3250;42.694;23.278;2023-01-04T08:30:26;18.47;;;10.40;;
6434;SDS011;3250;42.694;23.278;2023-01-04T08:32:52;16.20;;;8.87;;
6434;SDS011;3250;42.694;23.278;2023-01-04T08:35:18;18.10;;;9.83;;
6434;SDS011;3250;42.694;23.278;2023-01-04T08:37:43;18.07;;;10.70;;
6434;SDS011;3250;42.694;23.278;2023-01-04T08:40:09;21.63;;;11.23;;
6434;SDS011;3250;42.694;23.278;2023-01-04T08:42:35;17.47;;;10.90;;
6434;SDS011;3250;42.694;23.278;2023-01-04T08:45:00;19.67;;;10.70;;
6434;SDS011;3250;42.694;23.278;2023-01-04T08:47:27;23.47;;;10.53;;
6434;SDS011;3250;42.694;23.278;2023-01-04T08:49:53;33.63;;;15.57;;
6434;SDS011;3250;42.694;23.278;2023-01-04T08:52:19;20.23;;;10.63;;
6434;SDS011;3250;42.694;23.278;2023-01-04T08:54:44;17.00;;;10.17;;
6434;SDS011;3250;42.694;23.278;2023-01-04T08:57:09;18.47;;;9.13;;
6434;SDS011;3250;42.694;23.278;2023-01-04T08:59:35;14.73;;;8.13;;
6434;SDS011;3250;42.694;23.278;2023-01-04T09:02:00;13.40;;;8.03;;
6434;SDS011;3250;42.694;23.278;2023-01-04T09:04:26;13.70;;;8.10;;
6434;SDS011;3250;42.694;23.278;2023-01-04T09:06:51;21.27;;;10.30;;
6434;SDS011;3250;42.694;23.278;2023-01-04T09:09:17;21.03;;;10.60;;
6434;SDS011;3250;42.694;23.278;2023-01-04T09:11:42;16.97;;;9.37;;
6434;SDS011;3250;42.694;23.278;2023-01-04T09:14:08;14.13;;;8.80;;
6434;SDS011;3250;42.694;23.278;2023-01-04T09:16:35;16.67;;;10.20;;
6434;SDS011;3250;42.694;23.278;2023-01-04T09:19:02;13.93;;;8.50;;
6434;SDS011;3250;42.694;23.278;2023-01-04T09:21:27;16.53;;;10.13;;
6434;SDS011;3250;42.694;23.278;2023-01-04T09:23:55;16.13;;;9.23;;
6434;SDS011;3250;42.694;23.278;2023-01-04T09:26:21;14.67;;;9.27;;
6434;SDS011;3250;42.694;23.278;2023-01-04T09:28:51;13.50;;;8.63;;
6434;SDS011;3250;42.694;23.278;2023-01-04T09:31:19;15.33;;;8.00;;
6434;SDS011;3250;42.694;23.278;2023-01-04T09:33:46;14.23;;;8.63;;
6434;SDS011;3250;42.694;23.278;2023-01-04T09:36:12;12.87;;;8.00;;
6434;SDS011;3250;42.694;23.278;2023-01-04T09:38:39;15.77;;;8.87;;
6434;SDS011;3250;42.694;23.278;2023-01-04T09:46:49;15.60;;;8.80;;
6434;SDS011;3250;42.694;23.278;2023-01-04T09:49:23;19.87;;;10.40;;
6434;SDS011;3250;42.694;23.278;2023-01-04T09:57:26;17.27;;;10.30;;
6434;SDS011;3250;42.694;23.278;2023-01-04T10:05:32;15.20;;;9.17;;
6434;SDS011;3250;42.694;23.278;2023-01-04T10:07:58;17.20;;;9.00;;
6434;SDS011;3250;42.694;23.278;2023-01-04T10:15:36;18.80;;;8.10;;
6434;SDS011;3250;42.694;23.278;2023-01-04T10:26:42;20.80;;;11.63;;
6434;SDS011;3250;42.694;23.278;2023-01-04T10:34:39;15.47;;;9.07;;
6434;SDS011;3250;42.694;23.278;2023-01-04T10:39:41;21.93;;;11.80;;
6434;SDS011;3250;42.694;23.278;2023-01-04T10:50:54;15.33;;;9.60;;
6434;SDS011;3250;42.694;23.278;2023-01-04T10:53:29;15.83;;;10.33;;
6434;SDS011;3250;42.694;23.278;2023-01-04T10:56:03;17.17;;;9.43;;
6434;SDS011;3250;42.694;23.278;2023-01-04T10:59:01;19.47;;;10.20;;
6434;SDS011;3250;42.694;23.278;2023-01-04T11:01:48;18.50;;;10.43;;
6434;SDS011;3250;42.694;23.278;2023-01-04T11:07:14;16.03;;;9.13;;
6434;SDS011;3250;42.694;23.278;2023-01-04T11:12:33;18.43;;;9.13;;
6434;SDS011;3250;42.694;23.278;2023-01-04T11:14:58;18.77;;;10.67;;
6434;SDS011;3250;42.694;23.278;2023-01-04T11:17:24;13.33;;;7.47;;
6434;SDS011;3250;42.694;23.278;2023-01-04T11:19:49;15.10;;;8.33;;
6434;SDS011;3250;42.694;23.278;2023-01-04T11:22:35;13.77;;;8.37;;
6434;SDS011;3250;42.694;23.278;2023-01-04T11:25:11;16.33;;;7.97;;
6434;SDS011;3250;42.694;23.278;2023-01-04T11:30:46;17.97;;;9.70;;
6434;SDS011;3250;42.694;23.278;2023-01-04T11:33:18;16.87;;;9.53;;
6434;SDS011;3250;42.694;23.278;2023-01-04T11:35:47;13.87;;;8.50;;
6434;SDS011;3250;42.694;23.278;2023-01-04T11:38:18;19.47;;;9.20;;
6434;SDS011;3250;42.694;23.278;2023-01-04T11:43:20;26.93;;;12.43;;
6434;SDS011;3250;42.694;23.278;2023-01-04T11:45:54;18.57;;;10.40;;
6434;SDS011;3250;42.694;23.278;2023-01-04T11:48:29;26.10;;;12.57;;
6434;SDS011;3250;42.694;23.278;2023-01-04T11:51:14;26.67;;;12.20;;
6434;SDS011;3250;42.694;23.278;2023-01-04T11:53:43;20.90;;;10.60;;
6434;SDS011;3250;42.694;23.278;2023-01-04T11:58:36;16.83;;;8.97;;
6434;SDS011;3250;42.694;23.278;2023-01-04T12:01:01;19.73;;;10.73;;
6434;SDS011;3250;42.694;23.278;2023-01-04T12:03:28;20.03;;;10.73;;
6434;SDS011;3250;42.694;23.278;2023-01-04T12:05:59;21.03;;;11.03;;
6434;SDS011;3250;42.694;23.278;2023-01-04T12:08:31;21.93;;;13.00;;
6434;SDS011;3250;42.694;23.278;2023-01-04T12:10:59;26.37;;;15.70;;
6434;SDS011;3250;42.694;23.278;2023-01-04T12:13:27;26.23;;;14.57;;
6434;SDS011;3250;42.694;23.278;2023-01-04T12:15:56;24.07;;;12.37;;
6434;SDS011;3250;42.694;23.278;2023-01-04T12:18:24;21.23;;;11.93;;
6434;SDS011;3250;42.694;23.278;2023-01-04T12:20:52;24.30;;;12.30;;
6434;SDS011;3250;42.694;23.278;2023-01-04T12:23:19;16.97;;;10.20;;
6434;SDS011;3250;42.694;23.278;2023-01-04T12:25:46;15.97;;;9.17;;
6434;SDS011;3250;42.694;23.278;2023-01-04T12:36:14;20.47;;;10.73;;
6434;SDS011;3250;42.694;23.278;2023-01-04T12:41:20;20.33;;;12.57;;
6434;SDS011;3250;42.694;23.278;2023-01-04T12:43:47;23.87;;;13.83;;
6434;SDS011;3250;42.694;23.278;2023-01-04T12:54:42;13.27;;;8.23;;
6434;SDS011;3250;42.694;23.278;2023-01-04T13:02:34;15.13;;;9.03;;
6434;SDS011;3250;42.694;23.278;2023-01-04T13:07:46;16.07;;;9.73;;
6434;SDS011;3250;42.694;23.278;2023-01-04T13:10:19;19.87;;;10.87;;
6434;SDS011;3250;42.694;23.278;2023-01-04T13:19:06;15.20;;;9.17;;
6434;SDS011;3250;42.694;23.278;2023-01-04T13:21:40;15.23;;;8.50;;
6434;SDS011;3250;42.694;23.278;2023-01-04T13:26:51;14.67;;;9.10;;
6434;SDS011;3250;42.694;23.278;2023-01-04T13:29:18;14.17;;;9.33;;
6434;SDS011;3250;42.694;23.278;2023-01-04T13:31:54;18.05;;;11.20;;
6434;SDS011;3250;42.694;23.278;2023-01-04T13:43:41;13.30;;;8.40;;
6434;SDS011;3250;42.694;23.278;2023-01-04T13:46:15;22.00;;;11.38;;
6434;SDS011;3250;42.694;23.278;2023-01-04T13:48:44;16.90;;;9.60;;
6434;SDS011;3250;42.694;23.278;2023-01-04T13:53:53;39.15;;;14.63;;
6434;SDS011;3250;42.694;23.278;2023-01-04T13:56:24;28.23;;;15.85;;
6434;SDS011;3250;42.694;23.278;2023-01-04T13:58:51;29.93;;;14.00;;
6434;SDS011;3250;42.694;23.278;2023-01-04T14:01:27;30.80;;;15.20;;
6434;SDS011;3250;42.694;23.278;2023-01-04T14:04:05;32.38;;;15.48;;
6434;SDS011;3250;42.694;23.278;2023-01-04T14:06:47;29.13;;;16.52;;
6434;SDS011;3250;42.694;23.278;2023-01-04T14:09:22;32.33;;;16.47;;
6434;SDS011;3250;42.694;23.278;2023-01-04T14:11:50;28.40;;;15.75;;
6434;SDS011;3250;42.694;23.278;2023-01-04T14:22:36;18.53;;;10.47;;
6434;SDS011;3250;42.694;23.278;2023-01-04T14:36:13;30.30;;;16.88;;
6434;SDS011;3250;42.694;23.278;2023-01-04T14:38:44;36.17;;;17.17;;
6434;SDS011;3250;42.694;23.278;2023-01-04T14:43:50;42.73;;;17.07;;
6434;SDS011;3250;42.694;23.278;2023-01-04T14:46:20;28.02;;;14.40;;
6434;SDS011;3250;42.694;23.278;2023-01-04T14:48:46;24.80;;;13.52;;
6434;SDS011;3250;42.694;23.278;2023-01-04T14:51:14;19.13;;;10.63;;
6434;SDS011;3250;42.694;23.278;2023-01-04T14:53:41;20.37;;;10.70;;
6434;SDS011;3250;42.694;23.278;2023-01-04T14:56:11;32.63;;;14.70;;
6434;SDS011;3250;42.694;23.278;2023-01-04T14:58:38;24.03;;;12.60;;
6434;SDS011;3250;42.694;23.278;2023-01-04T15:01:03;24.33;;;11.93;;
6434;SDS011;3250;42.694;23.278;2023-01-04T15:03:29;25.53;;;12.90;;
6434;SDS011;3250;42.694;23.278;2023-01-04T15:05:54;25.93;;;15.03;;
6434;SDS011;3250;42.694;23.278;2023-01-04T15:08:20;29.97;;;13.93;;
6434;SDS011;3250;42.694;23.278;2023-01-04T15:10:46;32.38;;;18.73;;
6434;SDS011;3250;42.694;23.278;2023-01-04T15:13:12;32.87;;;18.30;;
6434;SDS011;3250;42.694;23.278;2023-01-04T15:15:38;39.80;;;21.90;;
6434;SDS011;3250;42.694;23.278;2023-01-04T15:18:04;38.23;;;22.47;;
6434;SDS011;3250;42.694;23.278;2023-01-04T15:20:29;38.72;;;24.48;;
6434;SDS011;3250;42.694;23.278;2023-01-04T15:22:54;34.47;;;18.43;;
6434;SDS011;3250;42.694;23.278;2023-01-04T15:25:20;31.77;;;16.43;;
6434;SDS011;3250;42.694;23.278;2023-01-04T15:27:45;24.83;;;13.50;;
6434;SDS011;3250;42.694;23.278;2023-01-04T15:30:11;30.58;;;14.98;;
6434;SDS011;3250;42.694;23.278;2023-01-04T15:32:37;26.63;;;14.17;;
6434;SDS011;3250;42.694;23.278;2023-01-04T15:35:03;26.07;;;14.80;;
6434;SDS011;3250;42.694;23.278;2023-01-04T15:37:29;31.33;;;14.93;;
6434;SDS011;3250;42.694;23.278;2023-01-04T15:39:55;25.63;;;13.90;;
6434;SDS011;3250;42.694;23.278;2023-01-04T15:42:20;29.70;;;15.00;;
6434;SDS011;3250;42.694;23.278;2023-01-04T15:45:05;33.97;;;17.10;;
6434;SDS011;3250;42.694;23.278;2023-01-04T15:47:31;39.17;;;16.50;;
6434;SDS011;3250;42.694;23.278;2023-01-04T15:49:57;40.72;;;18.70;;
6434;SDS011;3250;42.694;23.278;2023-01-04T15:52:26;38.72;;;20.13;;
6434;SDS011;3250;42.694;23.278;2023-01-04T15:54:51;30.10;;;17.43;;
6434;SDS011;3250;42.694;23.278;2023-01-04T15:57:17;29.77;;;16.30;;
6434;SDS011;3250;42.694;23.278;2023-01-04T15:59:44;58.50;;;26.30;;
6434;SDS011;3250;42.694;23.278;2023-01-04T16:02:11;39.93;;;18.20;;
6434;SDS011;3250;42.694;23.278;2023-01-04T16:04:36;30.53;;;16.47;;
6434;SDS011;3250;42.694;23.278;2023-01-04T16:07:02;36.67;;;18.17;;
6434;SDS011;3250;42.694;23.278;2023-01-04T16:09:29;35.23;;;18.40;;
6434;SDS011;3250;42.694;23.278;2023-01-04T16:11:54;35.73;;;20.10;;
6434;SDS011;3250;42.694;23.278;2023-01-04T16:14:38;56.83;;;38.47;;
6434;SDS011;3250;42.694;23.278;2023-01-04T16:17:04;62.13;;;38.47;;
6434;SDS011;3250;42.694;23.278;2023-01-04T16:19:29;50.37;;;31.63;;
6434;SDS011;3250;42.694;23.278;2023-01-04T16:21:56;35.47;;;19.20;;
6434;SDS011;3250;42.694;23.278;2023-01-04T16:24:22;42.30;;;19.30;;
6434;SDS011;3250;42.694;23.278;2023-01-04T16:26:48;32.37;;;20.43;;
6434;SDS011;3250;42.694;23.278;2023-01-04T16:29:13;25.93;;;16.50;;
6434;SDS011;3250;42.694;23.278;2023-01-04T16:31:38;21.97;;;13.77;;
6434;SDS011;3250;42.694;23.278;2023-01-04T16:34:04;28.63;;;15.20;;
6434;SDS011;3250;42.694;23.278;2023-01-04T16:36:29;25.40;;;14.43;;
6434;SDS011;3250;42.694;23.278;2023-01-04T16:38:55;31.80;;;15.97;;
6434;SDS011;3250;42.694;23.278;2023-01-04T16:41:21;37.53;;;17.07;;
6434;SDS011;3250;42.694;23.278;2023-01-04T16:43:47;29.33;;;15.63;;
6434;SDS011;3250;42.694;23.278;2023-01-04T16:48:45;38.03;;;18.83;;
6434;SDS011;3250;42.694;23.278;2023-01-04T16:51:12;30.83;;;18.07;;
6434;SDS011;3250;42.694;23.278;2023-01-04T16:53:39;29.30;;;16.53;;
6434;SDS011;3250;42.694;23.278;2023-01-04T16:56:06;28.37;;;17.03;;
6434;SDS011;3250;42.694;23.278;2023-01-04T16:58:36;32.63;;;16.63;;
6434;SDS011;3250;42.694;23.278;2023-01-04T17:01:09;37.20;;;17.60;;
6434;SDS011;3250;42.694;23.278;2023-01-04T17:03:35;40.63;;;20.53;;
6434;SDS011;3250;42.694;23.278;2023-01-04T17:06:08;27.33;;;14.90;;
6434;SDS011;3250;42.694;23.278;2023-01-04T17:08:46;27.87;;;13.23;;
6434;SDS011;3250;42.694;23.278;2023-01-04T17:11:14;29.03;;;13.93;;
6434;SDS011;3250;42.694;23.278;2023-01-04T17:13:43;33.00;;;16.93;;
6434;SDS011;3250;42.694;23.278;2023-01-04T17:16:10;32.03;;;17.40;;
6434;SDS011;3250;42.694;23.278;2023-01-04T17:18:36;29.83;;;15.10;;
6434;SDS011;3250;42.694;23.278;2023-01-04T17:21:03;26.50;;;15.10;;
6434;SDS011;3250;42.694;23.278;2023-01-04T17:23:32;31.97;;;16.53;;
6434;SDS011;3250;42.694;23.278;2023-01-04T17:26:03;25.07;;;14.93;;
6434;SDS011;3250;42.694;23.278;2023-01-04T17:28:38;26.83;;;14.33;;
6434;SDS011;3250;42.694;23.278;2023-01-04T17:31:05;27.50;;;15.90;;
6434;SDS011;3250;42.694;23.278;2023-01-04T17:33:32;29.43;;;14.90;;
6434;SDS011;3250;42.694;23.278;2023-01-04T17:36:00;29.57;;;15.63;;
6434;SDS011;3250;42.694;23.278;2023-01-04T17:38:29;32.13;;;16.93;;
6434;SDS011;3250;42.694;23.278;2023-01-04T17:40:55;30.20;;;15.43;;
6434;SDS011;3250;42.694;23.278;2023-01-04T17:43:20;28.57;;;12.80;;